Time;durP1;ratioP1;P1;durP2;ratioP2;P2;SDS_P1;SDS_P2;PMS_P1;PMS_P2;Temp;Humidity;BMP_temperature;BMP_pressure;BME280_temperature;BME280_humidity;BME280_pressure;Samples;Min_cycle;Max_cycle;Signal;HPM_P1;HPM_P2
2022/04/19 00:01:27;;;;;;;58.38;2.78;;;;;;;;;;5072050;28;20225;-72
2022/04/19 00:03:54;;;;;;;58.60;2.90;;;;;;;;;;5072417;28;20205;-72
2022/04/19 00:06:21;;;;;;;58.38;2.58;;;;;;;;;;5072379;28;20597;-72
2022/04/19 00:08:50;;;;;;;58.35;2.65;;;;;;;;;;5071485;28;20255;-72
2022/04/19 00:11:17;;;;;;;58.40;2.80;;;;;;;;;;5072167;28;20227;-72
2022/04/19 00:13:44;;;;;;;58.38;2.67;;;;;;;;;;5072747;28;20307;-72
2022/04/19 00:16:11;;;;;;;58.58;2.75;;;;;;;;;;5072429;28;20208;-72
2022/04/19 00:18:40;;;;;;;58.20;2.80;;;;;;;;;;5071303;28;20779;-72
2022/04/19 00:21:07;;;;;;;58.50;2.80;;;;;;;;;;5071941;28;20231;-72
2022/04/19 00:23:34;;;;;;;58.47;2.80;;;;;;;;;;5071903;28;20211;-72
2022/04/19 00:26:01;;;;;;;58.47;2.80;;;;;;;;;;5071875;28;20212;-72
2022/04/19 00:28:28;;;;;;;58.42;2.75;;;;;;;;;;5071323;28;20248;-72
2022/04/19 00:30:55;;;;;;;58.28;2.60;;;;;;;;;;5072466;28;20205;-72
2022/04/19 00:33:22;;;;;;;58.35;2.65;;;;;;;;;;5071918;28;20201;-72
2022/04/19 00:35:51;;;;;;;58.17;2.60;;;;;;;;;;5071794;28;20208;-72
2022/04/19 00:38:18;;;;;;;58.28;2.50;;;;;;;;;;5071009;28;20221;-72
2022/04/19 00:40:45;;;;;;;58.40;2.60;;;;;;;;;;5071601;28;20322;-72
2022/04/19 00:43:13;;;;;;;58.17;2.40;;;;;;;;;;5071667;28;20212;-72
2022/04/19 00:45:40;;;;;;;58.15;2.70;;;;;;;;;;5071890;28;20201;-72
2022/04/19 00:48:08;;;;;;;58.53;2.65;;;;;;;;;;5071661;28;20235;-72
2022/04/19 00:50:35;;;;;;;58.38;2.60;;;;;;;;;;5071658;28;20242;-73
2022/04/19 00:53:04;;;;;;;58.28;2.70;;;;;;;;;;5071544;28;20205;-72
2022/04/19 00:55:31;;;;;;;58.50;2.72;;;;;;;;;;5071865;28;20685;-72
2022/04/19 00:57:59;;;;;;;58.40;2.78;;;;;;;;;;5082137;28;20283;-72
2022/04/19 01:00:26;;;;;;;58.28;2.60;;;;;;;;;;5091834;28;20236;-72
2022/04/19 01:02:55;;;;;;;58.38;2.70;;;;;;;;;;5091697;28;20208;-72
2022/04/19 01:05:22;;;;;;;58.30;2.72;;;;;;;;;;5079244;28;20664;-72
2022/04/19 01:07:49;;;;;;;58.38;2.58;;;;;;;;;;5083142;28;20298;-72
2022/04/19 01:10:17;;;;;;;58.45;2.90;;;;;;;;;;5089366;28;20299;-72
2022/04/19 01:15:29;;;;;;;58.47;2.90;;;;;;;;;;5083477;28;20200;-72
2022/04/19 01:17:59;;;;;;;58.45;2.55;;;;;;;;;;5074568;28;20240;-72
2022/04/19 01:20:27;;;;;;;58.40;2.70;;;;;;;;;;5076572;28;20205;-72
2022/04/19 01:22:56;;;;;;;58.47;2.72;;;;;;;;;;5095689;28;20298;-72
2022/04/19 01:25:23;;;;;;;58.50;2.58;;;;;;;;;;5095498;28;20210;-72
2022/04/19 01:27:50;;;;;;;58.50;2.60;;;;;;;;;;5081173;28;20296;-72
2022/04/19 01:30:18;;;;;;;58.45;2.80;;;;;;;;;;5075101;28;20243;-72
2022/04/19 01:32:45;;;;;;;58.30;2.90;;;;;;;;;;5074883;28;20215;-72
2022/04/19 01:35:13;;;;;;;58.30;2.90;;;;;;;;;;5074967;28;20240;-72
2022/04/19 01:37:40;;;;;;;58.35;2.75;;;;;;;;;;5075018;28;20235;-72
2022/04/19 01:40:20;;;;;;;58.50;2.92;;;;;;;;;;5074070;28;20685;-73
2022/04/19 01:42:48;;;;;;;58.60;2.65;;;;;;;;;;5090919;28;20200;-72
2022/04/19 01:45:15;;;;;;;58.58;2.55;;;;;;;;;;5095357;28;20216;-72
2022/04/19 01:47:43;;;;;;;58.05;2.72;;;;;;;;;;5094342;28;20207;-72
2022/04/19 01:50:10;;;;;;;58.47;2.88;;;;;;;;;;5095015;28;20619;-72
2022/04/19 01:52:38;;;;;;;58.08;2.63;;;;;;;;;;5094888;28;20202;-72
2022/04/19 01:55:06;;;;;;;58.35;2.90;;;;;;;;;;5087911;28;20209;-72
2022/04/19 01:57:34;;;;;;;58.30;2.60;;;;;;;;;;5074142;28;20215;-72
2022/04/19 02:00:02;;;;;;;58.45;2.80;;;;;;;;;;5074640;28;20231;-72
2022/04/19 02:02:29;;;;;;;58.25;2.55;;;;;;;;;;5074387;28;20224;-72
2022/04/19 02:04:57;;;;;;;58.30;2.70;;;;;;;;;;5092942;28;20238;-72
2022/04/19 02:07:24;;;;;;;58.25;2.58;;;;;;;;;;5093919;28;20206;-72
2022/04/19 02:09:51;;;;;;;58.08;2.70;;;;;;;;;;5094374;28;20311;-72
2022/04/19 02:12:18;;;;;;;58.38;2.70;;;;;;;;;;5085639;28;20300;-72
2022/04/19 02:14:47;;;;;;;58.17;2.55;;;;;;;;;;5074466;28;20205;-72
2022/04/19 02:17:15;;;;;;;58.35;2.60;;;;;;;;;;5073621;28;20201;-72
2022/04/19 02:19:42;;;;;;;58.30;2.67;;;;;;;;;;5073880;28;20229;-72
2022/04/19 02:22:10;;;;;;;58.47;2.83;;;;;;;;;;5074166;28;20702;-72
2022/04/19 02:24:37;;;;;;;58.28;2.80;;;;;;;;;;5074408;28;20594;-72
2022/04/19 02:27:05;;;;;;;58.08;2.80;;;;;;;;;;5074488;28;20291;-72
2022/04/19 02:29:32;;;;;;;58.30;2.70;;;;;;;;;;5074542;28;20319;-72
2022/04/19 02:32:01;;;;;;;58.15;2.63;;;;;;;;;;5074309;28;20200;-72
2022/04/19 02:34:29;;;;;;;58.15;2.60;;;;;;;;;;5073803;28;20200;-72
2022/04/19 02:36:56;;;;;;;58.30;2.75;;;;;;;;;;5073893;28;20205;-72
2022/04/19 02:39:23;;;;;;;58.28;2.65;;;;;;;;;;5073008;28;20225;-72
2022/04/19 02:41:53;;;;;;;58.15;2.78;;;;;;;;;;5073747;28;20259;-72
2022/04/19 02:44:20;;;;;;;58.47;2.72;;;;;;;;;;5073739;28;20254;-72
2022/04/19 02:46:47;;;;;;;58.35;2.75;;;;;;;;;;5074271;28;20319;-72
2022/04/19 02:49:16;;;;;;;58.20;2.70;;;;;;;;;;5072884;28;20323;-72
2022/04/19 02:51:43;;;;;;;58.17;2.90;;;;;;;;;;5073522;28;20704;-72
2022/04/19 02:54:10;;;;;;;58.38;2.88;;;;;;;;;;5073644;28;20201;-72
2022/04/19 02:56:37;;;;;;;58.67;3.50;;;;;;;;;;5073592;28;20629;-72
2022/04/19 02:59:04;;;;;;;58.55;3.10;;;;;;;;;;5072729;28;20229;-72
2022/04/19 03:01:32;;;;;;;58.17;3.10;;;;;;;;;;5073236;28;20221;-72
2022/04/19 03:04:00;;;;;;;58.20;2.92;;;;;;;;;;5084264;28;20239;-72
2022/04/19 03:06:28;;;;;;;58.70;3.00;;;;;;;;;;5093485;28;20208;-72
2022/04/19 03:08:55;;;;;;;58.30;3.05;;;;;;;;;;5092719;28;20220;-72
2022/04/19 03:11:22;;;;;;;58.28;3.08;;;;;;;;;;5091723;28;20287;-72
2022/04/19 03:13:49;;;;;;;58.55;3.00;;;;;;;;;;5090441;28;20291;-72
2022/04/19 03:16:17;;;;;;;58.75;3.00;;;;;;;;;;5083886;28;20652;-72
2022/04/19 03:18:44;;;;;;;58.67;3.00;;;;;;;;;;5090231;28;20220;-72
2022/04/19 03:21:11;;;;;;;57.97;2.90;;;;;;;;;;5090025;28;20227;-72
2022/04/19 03:29:10;;;;;;;58.60;3.20;;;;;;;;;;5092565;28;20585;-72
2022/04/19 03:31:38;;;;;;;57.72;3.20;;;;;;;;;;5092297;28;20200;-72
2022/04/19 03:34:05;;;;;;;58.38;3.10;;;;;;;;;;5092933;28;20204;-72
2022/04/19 03:36:33;;;;;;;58.58;2.97;;;;;;;;;;5090155;28;20238;-72
2022/04/19 03:39:01;;;;;;;58.45;3.00;;;;;;;;;;5081591;28;20226;-72
2022/04/19 03:41:28;;;;;;;58.15;3.00;;;;;;;;;;5092989;28;20228;-72
2022/04/19 03:43:56;;;;;;;58.03;3.10;;;;;;;;;;5092965;28;20211;-72
2022/04/19 03:46:23;;;;;;;57.83;3.15;;;;;;;;;;5093030;28;20212;-72
2022/04/19 03:48:50;;;;;;;58.58;3.22;;;;;;;;;;5091908;28;20330;-72
2022/04/19 03:51:17;;;;;;;58.20;3.10;;;;;;;;;;5092691;28;20211;-72
2022/04/19 03:53:44;;;;;;;58.10;3.10;;;;;;;;;;5088293;28;20307;-72
2022/04/19 03:56:13;;;;;;;58.00;2.85;;;;;;;;;;5072534;28;20227;-73
2022/04/19 03:58:40;;;;;;;58.67;3.05;;;;;;;;;;5071674;28;20232;-72
2022/04/19 04:01:07;;;;;;;58.38;2.92;;;;;;;;;;5072350;28;20362;-72
2022/04/19 04:03:34;;;;;;;58.60;3.10;;;;;;;;;;5072183;28;20208;-72
2022/04/19 04:06:01;;;;;;;58.28;2.70;;;;;;;;;;5072093;28;20295;-72
2022/04/19 04:08:28;;;;;;;58.67;3.03;;;;;;;;;;5071291;28;20224;-72
2022/04/19 04:10:55;;;;;;;58.58;3.10;;;;;;;;;;5072691;28;20211;-72
2022/04/19 04:13:24;;;;;;;58.30;2.80;;;;;;;;;;5072175;28;20207;-72
2022/04/19 04:15:51;;;;;;;58.20;2.85;;;;;;;;;;5084741;28;20295;-72
2022/04/19 04:18:18;;;;;;;58.47;2.75;;;;;;;;;;5091460;28;20230;-72
2022/04/19 04:20:45;;;;;;;58.25;3.20;;;;;;;;;;5092130;28;20670;-72
2022/04/19 04:23:12;;;;;;;58.85;3.33;;;;;;;;;;5085478;28;20636;-72
2022/04/19 04:25:39;;;;;;;58.58;4.18;;;;;;;;;;5091781;28;20232;-72
2022/04/19 04:28:07;;;;;;;58.08;3.00;;;;;;;;;;5085630;28;20228;-72
2022/04/19 04:30:36;;;;;;;58.47;2.83;;;;;;;;;;5092185;28;20299;-72
2022/04/19 04:33:03;;;;;;;58.28;3.38;;;;;;;;;;5091941;28;20236;-72
2022/04/19 04:35:30;;;;;;;58.58;2.90;;;;;;;;;;5092225;28;20205;-72
2022/04/19 04:37:57;;;;;;;57.97;2.60;;;;;;;;;;5091378;28;20291;-73
2022/04/19 04:40:24;;;;;;;58.15;2.85;;;;;;;;;;5089175;28;20204;-72
2022/04/19 04:42:51;;;;;;;58.38;2.88;;;;;;;;;;5086387;28;20315;-72
2022/04/19 04:45:19;;;;;;;57.88;2.95;;;;;;;;;;5086089;28;20556;-72
2022/04/19 04:50:32;;;;;;;57.80;2.83;;;;;;;;;;5086300;28;20633;-72
2022/04/19 04:52:59;;;;;;;58.40;3.00;;;;;;;;;;5089226;28;20287;-72
2022/04/19 04:55:26;;;;;;;58.38;2.70;;;;;;;;;;5091907;28;20208;-72
2022/04/19 04:57:57;;;;;;;58.17;2.70;;;;;;;;;;5090856;28;20665;-72
2022/04/19 05:00:25;;;;;;;58.17;2.70;;;;;;;;;;5091760;28;20197;-72
2022/04/19 05:02:54;;;;;;;58.40;2.88;;;;;;;;;;5077907;28;20225;-72
2022/04/19 05:05:21;;;;;;;58.28;2.50;;;;;;;;;;5071490;28;20200;-72
2022/04/19 05:07:48;;;;;;;58.38;3.28;;;;;;;;;;5070832;28;20205;-72
2022/04/19 05:10:15;;;;;;;58.15;2.65;;;;;;;;;;5083498;28;20197;-72
2022/04/19 05:12:42;;;;;;;58.30;2.80;;;;;;;;;;5091840;28;20200;-72
2022/04/19 05:15:10;;;;;;;58.30;2.60;;;;;;;;;;5091945;28;20290;-72
2022/04/19 05:17:37;;;;;;;58.10;2.75;;;;;;;;;;5090957;28;20208;-72
2022/04/19 05:20:06;;;;;;;58.10;2.83;;;;;;;;;;5076239;28;20235;-72
2022/04/19 05:22:34;;;;;;;57.90;2.72;;;;;;;;;;5071213;28;20228;-72
2022/04/19 05:25:01;;;;;;;57.88;2.80;;;;;;;;;;5071423;28;20295;-72
2022/04/19 05:27:28;;;;;;;58.40;2.58;;;;;;;;;;5070573;28;20245;-72
2022/04/19 05:29:55;;;;;;;58.38;2.72;;;;;;;;;;5071518;28;20224;-72
2022/04/19 05:32:22;;;;;;;58.60;3.60;;;;;;;;;;5071414;28;20283;-72
2022/04/19 05:34:50;;;;;;;57.97;2.50;;;;;;;;;;5071453;28;20240;-72
2022/04/19 05:37:18;;;;;;;58.10;2.92;;;;;;;;;;5071067;28;20215;-72
2022/04/19 05:39:45;;;;;;;58.08;2.58;;;;;;;;;;5076031;28;20680;-72
2022/04/19 05:42:12;;;;;;;57.95;2.70;;;;;;;;;;5089328;28;20220;-73
2022/04/19 05:44:40;;;;;;;58.08;2.70;;;;;;;;;;5086874;28;20204;-72
2022/04/19 05:47:07;;;;;;;58.17;2.60;;;;;;;;;;5087286;28;20208;-73
2022/04/19 05:49:34;;;;;;;58.17;2.40;;;;;;;;;;5083645;28;20249;-73
2022/04/19 05:52:01;;;;;;;58.08;2.80;;;;;;;;;;5081346;28;20287;-72
2022/04/19 05:54:30;;;;;;;58.08;2.72;;;;;;;;;;5089404;28;20216;-72
2022/04/19 05:56:57;;;;;;;58.20;2.67;;;;;;;;;;5092295;28;20292;-72
2022/04/19 05:59:24;;;;;;;57.65;2.80;;;;;;;;;;5091059;28;20226;-72
2022/04/19 06:04:54;;;;;;;58.10;2.70;;;;;;;;;;5093212;28;20195;-73
2022/04/19 06:07:22;;;;;;;58.28;2.60;;;;;;;;;;5082571;28;20551;-73
2022/04/19 06:09:51;;;;;;;58.20;2.55;;;;;;;;;;5085259;28;20229;-72
2022/04/19 06:12:18;;;;;;;57.97;2.40;;;;;;;;;;5079779;28;20208;-73
2022/04/19 06:14:45;;;;;;;58.15;2.90;;;;;;;;;;5086647;28;20379;-72
2022/04/19 06:17:14;;;;;;;58.17;2.53;;;;;;;;;;5086400;28;20574;-72
2022/04/19 06:19:41;;;;;;;58.08;2.50;;;;;;;;;;5081574;28;20228;-72
2022/04/19 06:22:09;;;;;;;58.08;2.47;;;;;;;;;;5090231;28;20220;-72
2022/04/19 06:24:36;;;;;;;58.08;2.45;;;;;;;;;;5083572;28;20204;-73
2022/04/19 06:27:05;;;;;;;58.20;2.40;;;;;;;;;;5079622;28;20200;-71
2022/04/19 06:29:32;;;;;;;58.08;2.80;;;;;;;;;;5084314;28;20220;-72
2022/04/19 06:31:59;;;;;;;58.33;2.67;;;;;;;;;;5080989;28;20669;-72
2022/04/19 06:34:26;;;;;;;58.30;2.60;;;;;;;;;;5090578;28;20744;-72
2022/04/19 06:36:54;;;;;;;57.88;2.50;;;;;;;;;;5088278;28;20257;-72
2022/04/19 06:39:21;;;;;;;58.08;2.72;;;;;;;;;;5083558;28;20216;-72
2022/04/19 06:41:48;;;;;;;58.17;2.63;;;;;;;;;;5089499;28;20288;-72
2022/04/19 06:44:17;;;;;;;58.08;2.72;;;;;;;;;;5091802;28;20198;-72
2022/04/19 06:46:46;;;;;;;58.08;2.70;;;;;;;;;;5079148;28;20205;-72
2022/04/19 06:49:13;;;;;;;58.15;2.40;;;;;;;;;;5088967;28;20228;-72
2022/04/19 06:51:41;;;;;;;58.28;2.47;;;;;;;;;;5090661;28;20658;-72
2022/04/19 06:54:09;;;;;;;57.97;2.70;;;;;;;;;;5080364;28;20650;-72
2022/04/19 06:56:36;;;;;;;58.30;2.80;;;;;;;;;;5091536;28;20294;-72
2022/04/19 06:59:03;;;;;;;57.97;2.60;;;;;;;;;;5079753;28;20223;-72
2022/04/19 07:01:32;;;;;;;58.03;2.50;;;;;;;;;;5086518;28;20493;-72
2022/04/19 07:03:59;;;;;;;58.03;2.63;;;;;;;;;;5079427;28;20858;-72
2022/04/19 07:06:26;;;;;;;58.07;2.70;;;;;;;;;;5089235;28;20517;-72
2022/04/19 07:08:53;;;;;;;58.00;2.60;;;;;;;;;;5082278;28;21075;-72
2022/04/19 07:11:20;;;;;;;58.27;2.63;;;;;;;;;;5085977;28;20919;-73
2022/04/19 07:13:48;;;;;;;57.97;2.60;;;;;;;;;;5089548;28;20468;-73
2022/04/19 07:16:15;;;;;;;58.00;2.70;;;;;;;;;;5090251;28;20487;-72
2022/04/19 07:18:43;;;;;;;57.87;2.37;;;;;;;;;;5080901;28;20574;-72
2022/04/19 07:26:40;;;;;;;58.03;2.43;;;;;;;;;;5083873;28;20969;-72
2022/04/19 07:29:10;;;;;;;57.97;2.60;;;;;;;;;;5087604;28;20504;-72
2022/04/19 07:31:37;;;;;;;58.13;2.53;;;;;;;;;;5089250;28;20565;-72
2022/04/19 07:34:06;;;;;;;57.97;2.50;;;;;;;;;;5088574;28;21732;-72
2022/04/19 07:36:33;;;;;;;57.97;2.40;;;;;;;;;;5078680;28;20966;-72
2022/04/19 07:39:00;;;;;;;57.67;2.30;;;;;;;;;;5091029;28;20489;-72
2022/04/19 07:41:28;;;;;;;57.67;2.33;;;;;;;;;;5092727;28;20974;-72
2022/04/19 07:43:55;;;;;;;57.93;2.67;;;;;;;;;;5092743;28;20525;-72
2022/04/19 07:46:22;;;;;;;58.00;2.30;;;;;;;;;;5092919;28;20457;-72
2022/04/19 07:48:51;;;;;;;57.97;2.80;;;;;;;;;;5091681;28;20478;-73
2022/04/19 07:51:20;;;;;;;57.90;2.60;;;;;;;;;;5092656;28;20450;-72
2022/04/19 07:53:47;;;;;;;57.87;2.60;;;;;;;;;;5092812;28;20826;-72
2022/04/19 07:56:14;;;;;;;58.23;2.60;;;;;;;;;;5092810;28;20503;-72
2022/04/19 07:58:42;;;;;;;58.03;2.60;;;;;;;;;;5091961;28;20549;-72
2022/04/19 08:01:10;;;;;;;58.07;2.43;;;;;;;;;;5092661;28;20549;-73
2022/04/19 08:03:37;;;;;;;58.13;2.77;;;;;;;;;;5092229;28;20485;-73
2022/04/19 08:06:05;;;;;;;58.27;2.80;;;;;;;;;;5092427;28;20447;-73
2022/04/19 08:08:33;;;;;;;57.97;2.40;;;;;;;;;;5091677;28;20556;-73
2022/04/19 08:11:00;;;;;;;57.87;2.40;;;;;;;;;;5092443;28;20535;-73
2022/04/19 08:13:28;;;;;;;57.97;2.47;;;;;;;;;;5092371;28;20464;-73
2022/04/19 08:15:55;;;;;;;58.10;2.40;;;;;;;;;;5092327;28;20546;-73
2022/04/19 08:18:22;;;;;;;57.77;2.53;;;;;;;;;;5091070;28;20628;-72
2022/04/19 08:20:51;;;;;;;57.87;2.50;;;;;;;;;;5092272;28;20938;-73
2022/04/19 08:23:18;;;;;;;57.97;2.50;;;;;;;;;;5092209;28;20482;-73
2022/04/19 08:25:46;;;;;;;57.93;2.57;;;;;;;;;;5092131;28;20452;-73
2022/04/19 08:28:14;;;;;;;60.63;3.23;;;;;;;;;;5091287;28;20556;-73
2022/04/19 08:30:41;;;;;;;58.27;2.87;;;;;;;;;;5092001;28;20438;-73
2022/04/19 08:33:08;;;;;;;58.27;2.70;;;;;;;;;;5092182;28;20446;-73
2022/04/19 08:35:35;;;;;;;58.13;2.50;;;;;;;;;;5092025;28;20942;-73
2022/04/19 08:38:02;;;;;;;58.27;2.60;;;;;;;;;;5091387;28;20470;-73
2022/04/19 08:40:32;;;;;;;57.93;2.37;;;;;;;;;;5092011;28;20450;-73
2022/04/19 08:43:01;;;;;;;57.73;2.60;;;;;;;;;;5092307;28;20827;-73
2022/04/19 08:45:28;;;;;;;57.97;2.60;;;;;;;;;;5091906;28;20548;-73
2022/04/19 08:47:57;;;;;;;57.87;2.50;;;;;;;;;;5091544;28;20799;-73
2022/04/19 08:50:24;;;;;;;58.10;2.67;;;;;;;;;;5091783;28;20512;-73
2022/04/19 08:57:29;;;;;;;57.87;2.20;;;;;;;;;;5091876;28;20526;-73
2022/04/19 08:58:24;;;;;;;57.87;2.70;;;;;;;;;;5091013;28;20875;-73
2022/04/19 09:00:52;;;;;;;57.87;2.50;;;;;;;;;;5091880;28;20526;-73
2022/04/19 09:03:20;;;;;;;57.87;2.53;;;;;;;;;;5091975;28;20478;-73
2022/04/19 09:05:51;;;;;;;57.67;2.47;;;;;;;;;;5091822;28;20511;-73
2022/04/19 09:08:19;;;;;;;57.90;2.40;;;;;;;;;;5090856;28;20481;-73
2022/04/19 09:10:46;;;;;;;57.87;2.60;;;;;;;;;;5091840;28;20828;-73
2022/04/19 09:13:14;;;;;;;57.87;2.60;;;;;;;;;;5091732;28;20530;-73
2022/04/19 09:15:43;;;;;;;58.17;2.50;;;;;;;;;;5091753;28;20445;-73
2022/04/19 09:18:15;;;;;;;57.73;2.37;;;;;;;;;;5090947;28;20469;-73
2022/04/19 09:20:42;;;;;;;58.03;2.80;;;;;;;;;;5091957;28;20454;-73
2022/04/19 09:23:11;;;;;;;58.17;2.40;;;;;;;;;;5091790;28;20518;-73
2022/04/19 09:25:39;;;;;;;57.77;2.60;;;;;;;;;;5091755;28;20516;-73
2022/04/19 09:28:16;;;;;;;57.83;2.43;;;;;;;;;;5090949;28;20467;-73
2022/04/19 09:30:45;;;;;;;57.83;2.50;;;;;;;;;;5095177;28;20467;-73
2022/04/19 09:33:12;;;;;;;58.00;2.40;;;;;;;;;;5095224;28;20439;-73
2022/04/19 09:35:43;;;;;;;57.77;2.20;;;;;;;;;;5095605;28;20545;-71
2022/04/19 09:38:10;;;;;;;57.00;2.10;;;;;;;;;;5094547;28;20467;-71
2022/04/19 09:40:38;;;;;;;57.87;2.30;;;;;;;;;;5095403;28;20452;-73
2022/04/19 09:43:10;;;;;;;57.77;2.40;;;;;;;;;;5095123;28;20483;-71
2022/04/19 09:46:03;;;;;;;57.77;2.50;;;;;;;;;;5095063;28;20447;-71
2022/04/19 09:48:32;;;;;;;58.20;2.60;;;;;;;;;;5079347;28;20487;-71
2022/04/19 09:51:02;;;;;;;58.13;2.43;;;;;;;;;;5095359;28;20782;-71
2022/04/19 09:53:30;;;;;;;57.93;2.30;;;;;;;;;;5095120;28;20445;-72
2022/04/19 09:55:58;;;;;;;57.70;2.43;;;;;;;;;;5093674;28;20464;-72
2022/04/19 09:58:26;;;;;;;57.63;2.37;;;;;;;;;;5094251;28;20473;-72
2022/04/19 10:00:53;;;;;;;57.83;2.30;;;;;;;;;;5095138;28;20541;-72
2022/04/19 10:09:01;;;;;;;57.77;2.00;;;;;;;;;;5094014;28;20447;-73
2022/04/19 10:11:29;;;;;;;57.73;1.93;;;;;;;;;;5094830;28;20446;-73
2022/04/19 10:13:56;;;;;;;57.83;2.20;;;;;;;;;;5094608;28;20440;-73
2022/04/19 10:16:24;;;;;;;57.43;1.77;;;;;;;;;;5094680;28;20442;-73
2022/04/19 10:18:51;;;;;;;57.27;1.67;;;;;;;;;;5093723;28;20470;-74
2022/04/19 10:21:20;;;;;;;57.40;1.70;;;;;;;;;;5094495;28;20555;-73
2022/04/19 10:23:48;;;;;;;56.97;1.67;;;;;;;;;;5094490;28;20624;-73
2022/04/19 10:26:16;;;;;;;57.07;1.70;;;;;;;;;;5094542;28;20557;-73
2022/04/19 10:28:43;;;;;;;56.83;1.77;;;;;;;;;;5093674;28;20469;-74
2022/04/19 10:31:12;;;;;;;56.87;1.80;;;;;;;;;;5094241;28;20545;-74
2022/04/19 10:33:49;;;;;;;57.30;2.20;;;;;;;;;;5094084;28;20935;-74
2022/04/19 10:36:18;;;;;;;56.87;1.70;;;;;;;;;;5094379;28;20454;-74
2022/04/19 10:38:48;;;;;;;56.73;1.70;;;;;;;;;;5093531;28;20470;-74
2022/04/19 10:41:34;;;;;;;56.83;1.90;;;;;;;;;;5093936;28;20525;-74
2022/04/19 10:44:21;;;;;;;56.87;1.67;;;;;;;;;;5093831;28;20524;-74
2022/04/19 10:46:50;;;;;;;56.67;1.60;;;;;;;;;;5094262;28;20870;-74
2022/04/19 10:49:23;;;;;;;56.80;1.90;;;;;;;;;;5093318;28;20478;-74
2022/04/19 10:51:52;;;;;;;56.57;1.57;;;;;;;;;;5093954;28;20560;-72
2022/04/19 10:54:34;;;;;;;56.37;1.50;;;;;;;;;;5093794;28;20802;-73
2022/04/19 10:58:05;;;;;;;56.30;1.50;;;;;;;;;;5093716;28;20442;-72
2022/04/19 11:00:20;;;;;;;56.67;1.50;;;;;;;;;;5093476;28;20884;-74
2022/04/19 11:02:59;;;;;;;56.67;1.87;;;;;;;;;;5093594;28;20496;-74
2022/04/19 11:05:36;;;;;;;56.43;1.60;;;;;;;;;;5093593;28;21017;-74
2022/04/19 11:08:18;;;;;;;56.53;1.50;;;;;;;;;;5092975;28;20573;-74
2022/04/19 11:10:45;;;;;;;56.60;1.53;;;;;;;;;;5093525;28;20888;-74
2022/04/19 11:13:12;;;;;;;56.90;2.10;;;;;;;;;;5093318;28;20446;-74
2022/04/19 11:15:41;;;;;;;56.43;1.40;;;;;;;;;;5093668;28;20469;-74
2022/04/19 11:18:23;;;;;;;56.90;2.10;;;;;;;;;;5092774;28;20458;-74
2022/04/19 11:20:51;;;;;;;56.27;1.60;;;;;;;;;;5093479;28;20538;-74
2022/04/19 11:23:19;;;;;;;56.53;1.97;;;;;;;;;;5093222;28;20974;-74
2022/04/19 11:25:48;;;;;;;56.60;1.90;;;;;;;;;;5093131;28;20453;-74
2022/04/19 11:28:29;;;;;;;56.60;1.50;;;;;;;;;;5092630;28;20470;-74
2022/04/19 11:31:09;;;;;;;56.33;1.60;;;;;;;;;;5093190;28;20454;-69
2022/04/19 11:33:38;;;;;;;56.47;1.80;;;;;;;;;;5092997;28;20935;-72
2022/04/19 11:36:06;;;;;;;56.57;1.80;;;;;;;;;;5092876;28;20446;-72
2022/04/19 11:38:34;;;;;;;56.30;1.57;;;;;;;;;;5092426;28;20466;-72
2022/04/19 11:46:46;;;;;;;56.20;1.73;;;;;;;;;;5092876;28;20433;-74
2022/04/19 11:49:31;;;;;;;56.10;1.37;;;;;;;;;;5091879;28;21043;-72
2022/04/19 11:51:58;;;;;;;56.27;1.83;;;;;;;;;;5092143;28;20450;-72
2022/04/19 11:54:26;;;;;;;56.10;1.40;;;;;;;;;;5092637;28;20533;-74
2022/04/19 11:56:54;;;;;;;56.60;1.90;;;;;;;;;;5092514;28;20450;-72
2022/04/19 11:59:26;;;;;;;56.03;1.50;;;;;;;;;;5092110;28;20466;-73
2022/04/19 12:01:54;;;;;;;56.07;1.40;;;;;;;;;;5092801;28;20443;-72
2022/04/19 12:04:21;;;;;;;56.37;1.30;;;;;;;;;;5092522;28;20478;-72
2022/04/19 12:06:50;;;;;;;56.50;1.50;;;;;;;;;;5092972;28;20458;-72
2022/04/19 12:09:18;;;;;;;56.57;1.50;;;;;;;;;;5091343;28;20477;-72
2022/04/19 12:11:47;;;;;;;56.47;1.43;;;;;;;;;;5092551;28;20442;-72
2022/04/19 12:14:24;;;;;;;56.30;1.40;;;;;;;;;;5092489;28;20478;-72
2022/04/19 12:16:55;;;;;;;55.87;1.40;;;;;;;;;;5092518;28;20818;-72
2022/04/19 12:19:32;;;;;;;56.30;1.53;;;;;;;;;;5091574;28;20990;-72
2022/04/19 12:22:01;;;;;;;56.80;1.70;;;;;;;;;;5092247;28;20450;-72
2022/04/19 12:24:30;;;;;;;56.13;1.70;;;;;;;;;;5092142;28;20568;-72
2022/04/19 12:27:05;;;;;;;56.20;1.80;;;;;;;;;;5092300;28;20454;-72
2022/04/19 12:29:32;;;;;;;56.13;1.47;;;;;;;;;;5091690;28;20505;-72
2022/04/19 12:32:00;;;;;;;55.87;1.70;;;;;;;;;;5092231;28;20450;-72
2022/04/19 12:34:33;;;;;;;56.47;1.43;;;;;;;;;;5091953;28;20450;-72
2022/04/19 12:37:07;;;;;;;56.30;1.60;;;;;;;;;;5092344;28;20446;-72
2022/04/19 12:39:34;;;;;;;56.23;1.73;;;;;;;;;;5091829;28;20459;-72
2022/04/19 12:42:07;;;;;;;56.57;1.63;;;;;;;;;;5092399;28;20892;-72
2022/04/19 12:44:35;;;;;;;56.17;1.40;;;;;;;;;;5091929;28;20608;-72
2022/04/19 12:47:04;;;;;;;56.40;2.17;;;;;;;;;;5091870;28;20464;-72
2022/04/19 12:49:32;;;;;;;56.47;1.90;;;;;;;;;;5091312;28;20486;-73
2022/04/19 12:52:00;;;;;;;56.27;1.60;;;;;;;;;;5091871;28;20501;-72
2022/04/19 12:54:29;;;;;;;56.27;1.50;;;;;;;;;;5092038;28;20454;-73
2022/04/19 13:14:41;;;;;;;56.70;2.33;;;;;;;;;;5095921;28;20476;-72
2022/04/19 13:17:08;;;;;;;56.27;1.40;;;;;;;;;;5095349;28;20533;-72
2022/04/19 13:19:36;;;;;;;56.40;1.60;;;;;;;;;;5095731;28;20545;-72
2022/04/19 13:22:03;;;;;;;56.50;1.63;;;;;;;;;;5095688;28;20442;-72
2022/04/19 13:24:30;;;;;;;56.47;1.40;;;;;;;;;;5095239;28;20485;-72
2022/04/19 13:27:00;;;;;;;56.37;1.60;;;;;;;;;;5095495;28;20478;-72
2022/04/19 13:29:27;;;;;;;56.87;2.20;;;;;;;;;;5094922;28;20462;-72
2022/04/19 13:31:54;;;;;;;56.43;1.57;;;;;;;;;;5095584;28;20545;-72
2022/04/19 13:34:22;;;;;;;56.37;1.40;;;;;;;;;;5095409;28;20885;-73
2022/04/19 13:36:49;;;;;;;55.97;1.40;;;;;;;;;;5095338;28;20445;-73
2022/04/19 13:39:16;;;;;;;55.87;1.40;;;;;;;;;;5094497;28;20556;-73
2022/04/19 13:41:43;;;;;;;56.10;1.50;;;;;;;;;;5095234;28;20454;-73
2022/04/19 13:44:12;;;;;;;56.07;1.50;;;;;;;;;;5095031;28;20543;-73
2022/04/19 13:46:39;;;;;;;56.23;1.60;;;;;;;;;;5095299;28;20485;-73
2022/04/19 13:49:07;;;;;;;56.23;1.70;;;;;;;;;;5094269;28;20521;-73
2022/04/19 13:51:35;;;;;;;56.43;1.73;;;;;;;;;;5095085;28;20484;-72
2022/04/19 13:54:02;;;;;;;56.37;1.50;;;;;;;;;;5095205;28;20445;-73
2022/04/19 13:56:30;;;;;;;56.47;1.47;;;;;;;;;;5094983;28;20438;-73
2022/04/19 13:58:57;;;;;;;56.37;1.60;;;;;;;;;;5094323;28;20462;-73
2022/04/19 14:01:28;;;;;;;56.50;1.50;;;;;;;;;;5094976;28;20533;-72
2022/04/19 14:03:55;;;;;;;56.40;1.60;;;;;;;;;;5094980;28;20871;-72
2022/04/19 14:06:22;;;;;;;56.57;1.70;;;;;;;;;;5094751;28;20478;-72
2022/04/19 14:08:49;;;;;;;56.80;1.70;;;;;;;;;;5093959;28;20557;-72
2022/04/19 14:11:17;;;;;;;56.77;1.70;;;;;;;;;;5094775;28;20457;-72
2022/04/19 14:13:44;;;;;;;56.97;1.70;;;;;;;;;;5094811;28;20529;-73
2022/04/19 14:16:11;;;;;;;57.20;2.10;;;;;;;;;;5094146;28;20541;-72
2022/04/19 14:18:40;;;;;;;57.60;2.40;;;;;;;;;;5093713;28;20463;-73
2022/04/19 14:21:07;;;;;;;56.97;1.80;;;;;;;;;;5094526;28;20477;-72
2022/04/19 14:23:34;;;;;;;57.70;2.53;;;;;;;;;;5094564;28;20537;-73
2022/04/19 14:26:02;;;;;;;56.80;2.00;;;;;;;;;;5094452;28;20582;-73
2022/04/19 14:34:02;;;;;;;57.07;1.67;;;;;;;;;;5054807;28;20487;-73
2022/04/19 14:36:29;;;;;;;57.30;1.70;;;;;;;;;;5094227;28;20928;-72
2022/04/19 14:38:56;;;;;;;57.37;1.87;;;;;;;;;;5093367;28;20480;-73
2022/04/19 14:41:23;;;;;;;56.93;1.63;;;;;;;;;;5094052;28;20498;-72
2022/04/19 14:43:51;;;;;;;57.27;1.70;;;;;;;;;;5093917;28;20492;-73
2022/04/19 14:46:18;;;;;;;56.77;1.83;;;;;;;;;;5094122;28;20493;-73
2022/04/19 14:48:45;;;;;;;57.20;1.70;;;;;;;;;;5093292;28;20475;-73
2022/04/19 14:53:58;;;;;;;57.90;2.57;;;;;;;;;;5093801;28;20433;-73
2022/04/19 14:56:25;;;;;;;57.07;1.60;;;;;;;;;;5094109;28;20546;-73
2022/04/19 14:58:52;;;;;;;56.97;1.70;;;;;;;;;;5093101;28;20472;-73
2022/04/19 15:01:20;;;;;;;58.27;2.57;;;;;;;;;;5093905;28;20543;-73
2022/04/19 15:03:47;;;;;;;57.23;2.00;;;;;;;;;;5093861;28;20667;-73
2022/04/19 15:06:15;;;;;;;56.97;1.53;;;;;;;;;;5093668;28;20512;-73
2022/04/19 15:08:43;;;;;;;57.20;1.70;;;;;;;;;;5092713;28;20468;-72
2022/04/19 15:11:10;;;;;;;57.47;1.90;;;;;;;;;;5093783;28;20455;-72
2022/04/19 15:13:37;;;;;;;57.27;1.80;;;;;;;;;;5093450;28;20976;-72
2022/04/19 15:16:04;;;;;;;57.47;1.90;;;;;;;;;;5093597;28;21049;-72
2022/04/19 15:18:32;;;;;;;57.60;2.10;;;;;;;;;;5092742;28;20462;-73
2022/04/19 15:20:59;;;;;;;57.70;2.10;;;;;;;;;;5093354;28;20454;-72
2022/04/19 15:23:28;;;;;;;57.27;1.70;;;;;;;;;;5093708;28;20454;-72
2022/04/19 15:25:56;;;;;;;57.83;2.57;;;;;;;;;;5093084;28;20516;-73
2022/04/19 15:28:23;;;;;;;57.40;1.77;;;;;;;;;;5092048;28;20470;-72
2022/04/19 15:30:50;;;;;;;57.53;1.90;;;;;;;;;;5093240;28;20450;-72
2022/04/19 15:33:18;;;;;;;57.33;1.90;;;;;;;;;;5093083;28;20448;-72
2022/04/19 15:35:45;;;;;;;59.17;2.87;;;;;;;;;;5092983;28;20449;-72
2022/04/19 15:38:12;;;;;;;57.37;1.73;;;;;;;;;;5092621;28;20473;-73